sensor_id;sensor_type;location;lat;lon;timestamp;P1;durP1;ratioP1;P2;durP2;ratioP2
73456;SDS011;61691;53.072;6.582;2023-08-12T00:00:57;11.80;;;2.50;;
73456;SDS011;61691;53.072;6.582;2023-08-12T00:03:24;13.77;;;2.83;;
73456;SDS011;61691;53.072;6.582;2023-08-12T00:05:51;11.98;;;2.50;;
73456;SDS011;61691;53.072;6.582;2023-08-12T00:08:18;13.73;;;3.00;;
73456;SDS011;61691;53.072;6.582;2023-08-12T00:10:46;12.55;;;2.70;;
73456;SDS011;61691;53.072;6.582;2023-08-12T00:13:12;11.27;;;2.60;;
73456;SDS011;61691;53.072;6.582;2023-08-12T00:15:43;13.10;;;3.38;;
73456;SDS011;61691;53.072;6.582;2023-08-12T00:18:11;14.25;;;2.95;;
73456;SDS011;61691;53.072;6.582;2023-08-12T00:20:37;12.30;;;2.97;;
73456;SDS011;61691;53.072;6.582;2023-08-12T00:23:04;12.48;;;3.17;;
73456;SDS011;61691;53.072;6.582;2023-08-12T00:25:32;13.70;;;3.03;;
73456;SDS011;61691;53.072;6.582;2023-08-12T00:27:58;11.80;;;2.83;;
73456;SDS011;61691;53.072;6.582;2023-08-12T00:30:25;12.43;;;2.72;;
73456;SDS011;61691;53.072;6.582;2023-08-12T00:32:52;13.25;;;3.08;;
73456;SDS011;61691;53.072;6.582;2023-08-12T00:35:19;14.32;;;3.20;;
73456;SDS011;61691;53.072;6.582;2023-08-12T00:37:45;14.63;;;3.00;;
73456;SDS011;61691;53.072;6.582;2023-08-12T00:40:12;13.38;;;3.22;;
73456;SDS011;61691;53.072;6.582;2023-08-12T00:42:40;16.80;;;3.72;;
73456;SDS011;61691;53.072;6.582;2023-08-12T00:45:10;11.88;;;3.15;;
73456;SDS011;61691;53.072;6.582;2023-08-12T00:47:39;12.30;;;2.90;;
73456;SDS011;61691;53.072;6.582;2023-08-12T00:50:07;17.42;;;3.70;;
73456;SDS011;61691;53.072;6.582;2023-08-12T00:52:38;14.95;;;3.20;;
73456;SDS011;61691;53.072;6.582;2023-08-12T00:55:06;14.27;;;3.30;;
73456;SDS011;61691;53.072;6.582;2023-08-12T00:57:33;14.93;;;3.20;;
73456;SDS011;61691;53.072;6.582;2023-08-12T01:00:01;12.63;;;3.13;;
73456;SDS011;61691;53.072;6.582;2023-08-12T01:02:30;16.30;;;3.70;;
73456;SDS011;61691;53.072;6.582;2023-08-12T01:04:57;15.45;;;3.17;;
73456;SDS011;61691;53.072;6.582;2023-08-12T01:07:24;11.70;;;3.33;;
73456;SDS011;61691;53.072;6.582;2023-08-12T01:09:51;15.45;;;3.33;;
73456;SDS011;61691;53.072;6.582;2023-08-12T01:12:22;12.52;;;2.90;;
73456;SDS011;61691;53.072;6.582;2023-08-12T01:15:03;14.75;;;3.65;;
73456;SDS011;61691;53.072;6.582;2023-08-12T01:17:32;15.05;;;3.33;;
73456;SDS011;61691;53.072;6.582;2023-08-12T01:20:00;15.43;;;3.30;;
73456;SDS011;61691;53.072;6.582;2023-08-12T01:22:29;16.92;;;3.85;;
73456;SDS011;61691;53.072;6.582;2023-08-12T01:24:58;16.25;;;4.28;;
73456;SDS011;61691;53.072;6.582;2023-08-12T01:27:25;15.27;;;4.15;;
73456;SDS011;61691;53.072;6.582;2023-08-12T01:29:52;13.65;;;3.60;;
73456;SDS011;61691;53.072;6.582;2023-08-12T01:35:03;16.83;;;4.78;;
73456;SDS011;61691;53.072;6.582;2023-08-12T01:37:48;14.93;;;3.80;;
73456;SDS011;61691;53.072;6.582;2023-08-12T01:42:45;17.60;;;4.25;;
73456;SDS011;61691;53.072;6.582;2023-08-12T01:45:13;20.75;;;4.75;;
73456;SDS011;61691;53.072;6.582;2023-08-12T01:47:42;16.55;;;4.75;;
73456;SDS011;61691;53.072;6.582;2023-08-12T01:52:36;16.25;;;4.65;;
73456;SDS011;61691;53.072;6.582;2023-08-12T01:55:03;16.15;;;4.35;;
73456;SDS011;61691;53.072;6.582;2023-08-12T01:57:30;20.13;;;5.07;;
73456;SDS011;61691;53.072;6.582;2023-08-12T01:59:57;17.20;;;5.03;;
73456;SDS011;61691;53.072;6.582;2023-08-12T02:02:24;16.35;;;4.80;;
73456;SDS011;61691;53.072;6.582;2023-08-12T02:04:50;15.95;;;4.82;;
73456;SDS011;61691;53.072;6.582;2023-08-12T02:07:17;16.83;;;4.90;;
73456;SDS011;61691;53.072;6.582;2023-08-12T02:09:44;17.17;;;4.95;;
73456;SDS011;61691;53.072;6.582;2023-08-12T02:12:10;15.50;;;4.90;;
73456;SDS011;61691;53.072;6.582;2023-08-12T02:14:37;17.55;;;4.93;;
73456;SDS011;61691;53.072;6.582;2023-08-12T02:17:04;15.23;;;5.10;;
73456;SDS011;61691;53.072;6.582;2023-08-12T02:19:33;16.10;;;5.15;;
73456;SDS011;61691;53.072;6.582;2023-08-12T02:22:03;19.40;;;5.95;;
73456;SDS011;61691;53.072;6.582;2023-08-12T02:24:30;17.10;;;4.97;;
73456;SDS011;61691;53.072;6.582;2023-08-12T02:26:57;16.65;;;5.18;;
73456;SDS011;61691;53.072;6.582;2023-08-12T02:29:24;16.67;;;4.75;;
73456;SDS011;61691;53.072;6.582;2023-08-12T02:31:50;18.55;;;5.50;;
73456;SDS011;61691;53.072;6.582;2023-08-12T02:34:17;16.08;;;5.25;;
73456;SDS011;61691;53.072;6.582;2023-08-12T02:36:44;19.02;;;5.68;;
73456;SDS011;61691;53.072;6.582;2023-08-12T02:39:11;18.95;;;5.25;;
73456;SDS011;61691;53.072;6.582;2023-08-12T02:41:38;18.90;;;5.47;;
73456;SDS011;61691;53.072;6.582;2023-08-12T02:44:05;18.25;;;5.53;;
73456;SDS011;61691;53.072;6.582;2023-08-12T02:46:32;16.40;;;5.38;;
73456;SDS011;61691;53.072;6.582;2023-08-12T02:48:59;17.15;;;5.47;;
73456;SDS011;61691;53.072;6.582;2023-08-12T02:51:25;21.02;;;6.13;;
73456;SDS011;61691;53.072;6.582;2023-08-12T02:53:52;18.45;;;5.55;;
73456;SDS011;61691;53.072;6.582;2023-08-12T02:56:19;18.58;;;6.20;;
73456;SDS011;61691;53.072;6.582;2023-08-12T02:58:46;19.10;;;5.93;;
73456;SDS011;61691;53.072;6.582;2023-08-12T03:01:13;17.70;;;5.78;;
73456;SDS011;61691;53.072;6.582;2023-08-12T03:03:40;19.38;;;6.50;;
73456;SDS011;61691;53.072;6.582;2023-08-12T03:06:07;18.58;;;6.40;;
73456;SDS011;61691;53.072;6.582;2023-08-12T03:08:33;18.58;;;6.35;;
73456;SDS011;61691;53.072;6.582;2023-08-12T03:11:00;18.83;;;6.53;;
73456;SDS011;61691;53.072;6.582;2023-08-12T03:13:28;19.10;;;6.95;;
73456;SDS011;61691;53.072;6.582;2023-08-12T03:15:55;17.92;;;6.75;;
73456;SDS011;61691;53.072;6.582;2023-08-12T03:18:22;18.40;;;6.35;;
73456;SDS011;61691;53.072;6.582;2023-08-12T03:20:49;20.35;;;6.80;;
73456;SDS011;61691;53.072;6.582;2023-08-12T03:23:16;18.40;;;7.32;;
73456;SDS011;61691;53.072;6.582;2023-08-12T03:25:43;20.35;;;7.30;;
73456;SDS011;61691;53.072;6.582;2023-08-12T03:28:10;19.75;;;7.15;;
73456;SDS011;61691;53.072;6.582;2023-08-12T03:30:38;19.67;;;7.68;;
73456;SDS011;61691;53.072;6.582;2023-08-12T03:33:05;22.13;;;8.07;;
73456;SDS011;61691;53.072;6.582;2023-08-12T03:35:32;18.52;;;7.22;;
73456;SDS011;61691;53.072;6.582;2023-08-12T03:37:59;18.42;;;7.00;;
73456;SDS011;61691;53.072;6.582;2023-08-12T03:40:25;18.92;;;7.45;;
73456;SDS011;61691;53.072;6.582;2023-08-12T03:42:52;20.70;;;7.40;;
73456;SDS011;61691;53.072;6.582;2023-08-12T03:45:19;18.20;;;7.25;;
73456;SDS011;61691;53.072;6.582;2023-08-12T03:47:45;19.15;;;6.65;;
73456;SDS011;61691;53.072;6.582;2023-08-12T03:50:12;20.13;;;7.65;;
73456;SDS011;61691;53.072;6.582;2023-08-12T03:52:39;20.00;;;7.72;;
73456;SDS011;61691;53.072;6.582;2023-08-12T03:55:06;20.88;;;8.45;;
73456;SDS011;61691;53.072;6.582;2023-08-12T03:57:33;18.63;;;7.72;;
73456;SDS011;61691;53.072;6.582;2023-08-12T04:00:00;21.25;;;7.47;;
73456;SDS011;61691;53.072;6.582;2023-08-12T04:02:26;20.73;;;7.82;;
73456;SDS011;61691;53.072;6.582;2023-08-12T04:04:53;21.25;;;7.97;;
73456;SDS011;61691;53.072;6.582;2023-08-12T04:07:20;18.90;;;8.30;;
73456;SDS011;61691;53.072;6.582;2023-08-12T04:09:46;21.55;;;8.18;;
73456;SDS011;61691;53.072;6.582;2023-08-12T04:12:13;20.63;;;8.23;;
73456;SDS011;61691;53.072;6.582;2023-08-12T04:14:40;22.10;;;8.40;;
73456;SDS011;61691;53.072;6.582;2023-08-12T04:17:07;20.50;;;8.00;;
73456;SDS011;61691;53.072;6.582;2023-08-12T04:19:34;20.27;;;8.32;;
73456;SDS011;61691;53.072;6.582;2023-08-12T04:22:00;19.88;;;8.50;;
73456;SDS011;61691;53.072;6.582;2023-08-12T04:24:27;20.15;;;8.38;;
73456;SDS011;61691;53.072;6.582;2023-08-12T04:26:54;20.55;;;7.57;;
73456;SDS011;61691;53.072;6.582;2023-08-12T04:29:20;21.20;;;8.15;;
73456;SDS011;61691;53.072;6.582;2023-08-12T04:31:47;19.48;;;7.82;;
73456;SDS011;61691;53.072;6.582;2023-08-12T04:34:14;23.33;;;8.48;;
73456;SDS011;61691;53.072;6.582;2023-08-12T04:36:40;22.05;;;8.77;;
73456;SDS011;61691;53.072;6.582;2023-08-12T04:39:10;19.83;;;8.30;;
73456;SDS011;61691;53.072;6.582;2023-08-12T04:41:36;20.85;;;8.57;;
73456;SDS011;61691;53.072;6.582;2023-08-12T04:44:04;19.85;;;8.48;;
73456;SDS011;61691;53.072;6.582;2023-08-12T04:46:32;22.15;;;8.52;;
73456;SDS011;61691;53.072;6.582;2023-08-12T04:48:59;19.58;;;8.60;;
73456;SDS011;61691;53.072;6.582;2023-08-12T04:51:26;20.75;;;8.20;;
73456;SDS011;61691;53.072;6.582;2023-08-12T04:53:53;22.25;;;8.60;;
73456;SDS011;61691;53.072;6.582;2023-08-12T04:56:20;20.60;;;8.13;;
73456;SDS011;61691;53.072;6.582;2023-08-12T04:58:47;20.35;;;8.27;;
73456;SDS011;61691;53.072;6.582;2023-08-12T05:01:13;22.52;;;8.77;;
73456;SDS011;61691;53.072;6.582;2023-08-12T05:03:40;21.05;;;8.20;;
73456;SDS011;61691;53.072;6.582;2023-08-12T05:06:07;19.35;;;8.13;;
73456;SDS011;61691;53.072;6.582;2023-08-12T05:08:34;20.23;;;8.50;;
73456;SDS011;61691;53.072;6.582;2023-08-12T05:11:00;20.25;;;8.07;;
73456;SDS011;61691;53.072;6.582;2023-08-12T05:13:27;21.55;;;9.00;;
73456;SDS011;61691;53.072;6.582;2023-08-12T05:15:56;20.75;;;8.77;;
73456;SDS011;61691;53.072;6.582;2023-08-12T05:18:23;23.77;;;9.27;;
73456;SDS011;61691;53.072;6.582;2023-08-12T05:20:51;20.50;;;7.93;;
73456;SDS011;61691;53.072;6.582;2023-08-12T05:23:21;21.30;;;8.63;;
73456;SDS011;61691;53.072;6.582;2023-08-12T05:25:48;19.50;;;7.67;;
73456;SDS011;61691;53.072;6.582;2023-08-12T05:28:15;23.05;;;8.50;;
73456;SDS011;61691;53.072;6.582;2023-08-12T05:30:42;19.05;;;8.00;;
73456;SDS011;61691;53.072;6.582;2023-08-12T05:33:08;21.83;;;8.65;;
73456;SDS011;61691;53.072;6.582;2023-08-12T05:35:35;19.35;;;7.90;;
73456;SDS011;61691;53.072;6.582;2023-08-12T05:38:02;19.77;;;7.85;;
73456;SDS011;61691;53.072;6.582;2023-08-12T05:40:29;20.23;;;8.30;;
73456;SDS011;61691;53.072;6.582;2023-08-12T05:42:56;21.25;;;8.00;;
73456;SDS011;61691;53.072;6.582;2023-08-12T05:45:23;19.73;;;8.00;;
73456;SDS011;61691;53.072;6.582;2023-08-12T05:47:49;19.77;;;7.45;;
73456;SDS011;61691;53.072;6.582;2023-08-12T05:50:16;21.00;;;8.10;;
73456;SDS011;61691;53.072;6.582;2023-08-12T05:52:43;19.98;;;7.97;;
73456;SDS011;61691;53.072;6.582;2023-08-12T05:55:10;20.23;;;8.15;;
73456;SDS011;61691;53.072;6.582;2023-08-12T05:57:37;21.75;;;8.15;;
73456;SDS011;61691;53.072;6.582;2023-08-12T06:00:04;20.58;;;8.57;;
73456;SDS011;61691;53.072;6.582;2023-08-12T06:02:31;23.77;;;9.15;;
73456;SDS011;61691;53.072;6.582;2023-08-12T06:04:58;20.58;;;9.43;;
73456;SDS011;61691;53.072;6.582;2023-08-12T06:07:25;22.13;;;8.85;;
73456;SDS011;61691;53.072;6.582;2023-08-12T06:09:52;21.98;;;8.98;;
73456;SDS011;61691;53.072;6.582;2023-08-12T06:12:18;23.85;;;9.10;;
73456;SDS011;61691;53.072;6.582;2023-08-12T06:14:45;22.10;;;7.97;;
73456;SDS011;61691;53.072;6.582;2023-08-12T06:17:12;25.48;;;9.23;;
73456;SDS011;61691;53.072;6.582;2023-08-12T06:19:38;20.30;;;8.48;;
73456;SDS011;61691;53.072;6.582;2023-08-12T06:22:05;22.40;;;9.10;;
73456;SDS011;61691;53.072;6.582;2023-08-12T06:24:32;21.77;;;9.68;;
73456;SDS011;61691;53.072;6.582;2023-08-12T06:26:59;20.60;;;8.60;;
73456;SDS011;61691;53.072;6.582;2023-08-12T06:29:26;21.58;;;9.13;;
73456;SDS011;61691;53.072;6.582;2023-08-12T06:31:53;21.80;;;9.60;;
73456;SDS011;61691;53.072;6.582;2023-08-12T06:34:19;21.35;;;9.00;;
73456;SDS011;61691;53.072;6.582;2023-08-12T06:36:46;21.13;;;9.75;;
73456;SDS011;61691;53.072;6.582;2023-08-12T06:39:13;22.33;;;9.85;;
73456;SDS011;61691;53.072;6.582;2023-08-12T06:41:40;23.90;;;9.90;;
73456;SDS011;61691;53.072;6.582;2023-08-12T06:44:06;24.58;;;9.90;;
73456;SDS011;61691;53.072;6.582;2023-08-12T06:46:33;26.60;;;9.63;;
73456;SDS011;61691;53.072;6.582;2023-08-12T06:49:00;20.48;;;8.98;;
73456;SDS011;61691;53.072;6.582;2023-08-12T06:51:27;22.85;;;8.32;;
73456;SDS011;61691;53.072;6.582;2023-08-12T06:53:54;20.95;;;9.20;;
73456;SDS011;61691;53.072;6.582;2023-08-12T06:56:20;20.50;;;8.90;;
73456;SDS011;61691;53.072;6.582;2023-08-12T06:58:47;22.92;;;9.65;;
73456;SDS011;61691;53.072;6.582;2023-08-12T07:01:14;22.13;;;9.00;;
73456;SDS011;61691;53.072;6.582;2023-08-12T07:03:41;22.58;;;8.80;;
73456;SDS011;61691;53.072;6.582;2023-08-12T07:06:08;21.52;;;9.40;;
73456;SDS011;61691;53.072;6.582;2023-08-12T07:08:35;22.45;;;10.05;;
73456;SDS011;61691;53.072;6.582;2023-08-12T07:11:02;22.00;;;9.05;;
73456;SDS011;61691;53.072;6.582;2023-08-12T07:13:28;27.65;;;9.68;;
73456;SDS011;61691;53.072;6.582;2023-08-12T07:15:55;22.63;;;8.73;;
73456;SDS011;61691;53.072;6.582;2023-08-12T07:18:22;21.02;;;8.95;;
73456;SDS011;61691;53.072;6.582;2023-08-12T07:20:50;24.65;;;9.77;;
73456;SDS011;61691;53.072;6.582;2023-08-12T07:23:17;24.17;;;9.98;;
73456;SDS011;61691;53.072;6.582;2023-08-12T07:25:45;25.02;;;10.50;;
73456;SDS011;61691;53.072;6.582;2023-08-12T07:28:13;23.48;;;10.68;;
73456;SDS011;61691;53.072;6.582;2023-08-12T07:30:39;25.75;;;10.40;;
73456;SDS011;61691;53.072;6.582;2023-08-12T07:33:07;25.80;;;10.75;;
73456;SDS011;61691;53.072;6.582;2023-08-12T07:35:33;25.40;;;10.10;;
73456;SDS011;61691;53.072;6.582;2023-08-12T07:38:00;22.25;;;10.07;;
73456;SDS011;61691;53.072;6.582;2023-08-12T07:40:27;26.70;;;12.38;;
73456;SDS011;61691;53.072;6.582;2023-08-12T07:42:54;24.45;;;11.05;;
73456;SDS011;61691;53.072;6.582;2023-08-12T07:45:21;22.20;;;9.57;;
73456;SDS011;61691;53.072;6.582;2023-08-12T07:47:51;22.67;;;10.73;;
73456;SDS011;61691;53.072;6.582;2023-08-12T07:50:18;23.15;;;10.23;;
73456;SDS011;61691;53.072;6.582;2023-08-12T07:52:45;22.75;;;10.73;;
73456;SDS011;61691;53.072;6.582;2023-08-12T07:55:12;23.65;;;10.57;;
73456;SDS011;61691;53.072;6.582;2023-08-12T07:57:39;24.00;;;11.05;;
73456;SDS011;61691;53.072;6.582;2023-08-12T08:00:06;24.60;;;11.20;;
73456;SDS011;61691;53.072;6.582;2023-08-12T08:02:34;24.75;;;10.57;;
73456;SDS011;61691;53.072;6.582;2023-08-12T08:05:01;23.15;;;10.45;;
73456;SDS011;61691;53.072;6.582;2023-08-12T08:07:29;26.70;;;11.32;;
73456;SDS011;61691;53.072;6.582;2023-08-12T08:09:56;23.30;;;11.52;;
73456;SDS011;61691;53.072;6.582;2023-08-12T08:12:23;25.40;;;10.90;;
73456;SDS011;61691;53.072;6.582;2023-08-12T08:14:50;23.45;;;11.43;;
73456;SDS011;61691;53.072;6.582;2023-08-12T08:17:17;25.30;;;12.40;;
73456;SDS011;61691;53.072;6.582;2023-08-12T08:19:44;23.88;;;11.25;;
73456;SDS011;61691;53.072;6.582;2023-08-12T08:22:10;23.08;;;10.93;;
73456;SDS011;61691;53.072;6.582;2023-08-12T08:24:37;25.48;;;11.77;;
73456;SDS011;61691;53.072;6.582;2023-08-12T08:27:04;26.65;;;12.05;;
73456;SDS011;61691;53.072;6.582;2023-08-12T08:29:31;24.50;;;11.32;;
73456;SDS011;61691;53.072;6.582;2023-08-12T08:31:58;22.73;;;11.15;;
73456;SDS011;61691;53.072;6.582;2023-08-12T08:34:24;25.25;;;11.80;;
73456;SDS011;61691;53.072;6.582;2023-08-12T08:36:51;24.67;;;11.55;;
73456;SDS011;61691;53.072;6.582;2023-08-12T08:39:18;24.70;;;11.65;;
73456;SDS011;61691;53.072;6.582;2023-08-12T08:41:45;23.60;;;11.95;;
73456;SDS011;61691;53.072;6.582;2023-08-12T08:44:14;22.30;;;11.48;;
73456;SDS011;61691;53.072;6.582;2023-08-12T08:46:41;25.42;;;13.35;;
73456;SDS011;61691;53.072;6.582;2023-08-12T08:49:09;25.05;;;14.32;;
73456;SDS011;61691;53.072;6.582;2023-08-12T08:51:38;26.48;;;13.35;;
73456;SDS011;61691;53.072;6.582;2023-08-12T08:54:05;28.25;;;13.88;;
73456;SDS011;61691;53.072;6.582;2023-08-12T08:56:32;28.98;;;13.57;;
73456;SDS011;61691;53.072;6.582;2023-08-12T08:59:01;25.05;;;12.95;;
73456;SDS011;61691;53.072;6.582;2023-08-12T09:01:27;26.67;;;12.82;;
73456;SDS011;61691;53.072;6.582;2023-08-12T09:03:55;28.33;;;14.38;;
73456;SDS011;61691;53.072;6.582;2023-08-12T09:06:25;31.50;;;15.40;;
73456;SDS011;61691;53.072;6.582;2023-08-12T09:08:52;27.75;;;13.95;;
73456;SDS011;61691;53.072;6.582;2023-08-12T09:11:19;29.38;;;13.50;;
73456;SDS011;61691;53.072;6.582;2023-08-12T09:13:47;26.90;;;14.43;;
73456;SDS011;61691;53.072;6.582;2023-08-12T09:16:15;27.30;;;15.82;;
73456;SDS011;61691;53.072;6.582;2023-08-12T09:18:42;31.77;;;16.70;;
73456;SDS011;61691;53.072;6.582;2023-08-12T09:21:10;28.20;;;15.20;;
73456;SDS011;61691;53.072;6.582;2023-08-12T09:23:38;27.83;;;14.45;;
73456;SDS011;61691;53.072;6.582;2023-08-12T09:26:16;24.75;;;13.50;;
73456;SDS011;61691;53.072;6.582;2023-08-12T09:28:44;25.27;;;12.40;;
73456;SDS011;61691;53.072;6.582;2023-08-12T09:31:21;24.17;;;12.45;;
73456;SDS011;61691;53.072;6.582;2023-08-12T09:34:03;22.98;;;12.07;;
73456;SDS011;61691;53.072;6.582;2023-08-12T09:36:31;25.92;;;13.07;;
73456;SDS011;61691;53.072;6.582;2023-08-12T09:38:58;22.60;;;12.10;;
73456;SDS011;61691;53.072;6.582;2023-08-12T09:41:26;25.58;;;12.27;;
73456;SDS011;61691;53.072;6.582;2023-08-12T09:43:54;22.45;;;11.50;;
73456;SDS011;61691;53.072;6.582;2023-08-12T09:46:22;22.65;;;12.05;;
73456;SDS011;61691;53.072;6.582;2023-08-12T09:48:50;24.88;;;11.75;;
73456;SDS011;61691;53.072;6.582;2023-08-12T09:51:19;22.15;;;10.40;;
73456;SDS011;61691;53.072;6.582;2023-08-12T09:53:49;25.73;;;11.27;;
73456;SDS011;61691;53.072;6.582;2023-08-12T09:56:19;21.92;;;10.82;;
73456;SDS011;61691;53.072;6.582;2023-08-12T09:58:49;20.92;;;8.80;;
73456;SDS011;61691;53.072;6.582;2023-08-12T10:01:18;19.50;;;7.88;;
73456;SDS011;61691;53.072;6.582;2023-08-12T10:03:50;19.48;;;6.68;;
73456;SDS011;61691;53.072;6.582;2023-08-12T10:06:18;17.85;;;6.78;;
73456;SDS011;61691;53.072;6.582;2023-08-12T10:08:46;18.90;;;6.70;;
73456;SDS011;61691;53.072;6.582;2023-08-12T10:11:14;17.85;;;5.32;;
73456;SDS011;61691;53.072;6.582;2023-08-12T10:13:42;15.07;;;4.53;;
73456;SDS011;61691;53.072;6.582;2023-08-12T10:16:09;15.93;;;4.47;;
73456;SDS011;61691;53.072;6.582;2023-08-12T10:18:38;13.52;;;3.78;;
73456;SDS011;61691;53.072;6.582;2023-08-12T10:21:09;16.75;;;4.60;;
73456;SDS011;61691;53.072;6.582;2023-08-12T10:23:37;16.45;;;4.20;;
73456;SDS011;61691;53.072;6.582;2023-08-12T10:26:05;14.48;;;4.00;;
73456;SDS011;61691;53.072;6.582;2023-08-12T10:28:32;14.02;;;3.78;;
73456;SDS011;61691;53.072;6.582;2023-08-12T10:31:06;17.17;;;4.40;;
73456;SDS011;61691;53.072;6.582;2023-08-12T10:33:40;16.63;;;4.20;;
73456;SDS011;61691;53.072;6.582;2023-08-12T10:36:09;16.45;;;4.38;;
73456;SDS011;61691;53.072;6.582;2023-08-12T10:38:36;15.02;;;3.58;;
73456;SDS011;61691;53.072;6.582;2023-08-12T10:46:28;16.10;;;3.40;;
73456;SDS011;61691;53.072;6.582;2023-08-12T10:49:03;13.18;;;3.42;;
73456;SDS011;61691;53.072;6.582;2023-08-12T10:54:14;15.80;;;4.03;;
73456;SDS011;61691;53.072;6.582;2023-08-12T11:02:26;13.07;;;3.20;;
73456;SDS011;61691;53.072;6.582;2023-08-12T11:05:00;14.57;;;3.13;;
73456;SDS011;61691;53.072;6.582;2023-08-12T11:10:19;13.57;;;3.10;;
73456;SDS011;61691;53.072;6.582;2023-08-12T11:12:53;12.98;;;2.95;;
73456;SDS011;61691;53.072;6.582;2023-08-12T11:15:29;12.63;;;3.08;;
73456;SDS011;61691;53.072;6.582;2023-08-12T11:18:21;13.57;;;3.33;;
73456;SDS011;61691;53.072;6.582;2023-08-12T11:20:48;12.55;;;2.83;;
73456;SDS011;61691;53.072;6.582;2023-08-12T11:23:16;11.30;;;2.97;;
73456;SDS011;61691;53.072;6.582;2023-08-12T11:25:43;14.32;;;3.47;;
73456;SDS011;61691;53.072;6.582;2023-08-12T11:28:13;14.15;;;3.30;;
73456;SDS011;61691;53.072;6.582;2023-08-12T11:30:40;11.65;;;2.75;;
73456;SDS011;61691;53.072;6.582;2023-08-12T11:33:08;8.68;;;2.30;;
73456;SDS011;61691;53.072;6.582;2023-08-12T11:35:36;8.65;;;1.90;;
73456;SDS011;61691;53.072;6.582;2023-08-12T11:38:04;6.80;;;1.77;;
73456;SDS011;61691;53.072;6.582;2023-08-12T11:40:33;5.82;;;1.90;;
73456;SDS011;61691;53.072;6.582;2023-08-12T11:43:01;6.85;;;1.90;;
73456;SDS011;61691;53.072;6.582;2023-08-12T11:45:31;6.45;;;1.60;;
73456;SDS011;61691;53.072;6.582;2023-08-12T11:47:58;8.75;;;2.00;;
73456;SDS011;61691;53.072;6.582;2023-08-12T11:50:25;8.52;;;1.83;;
73456;SDS011;61691;53.072;6.582;2023-08-12T11:52:54;9.32;;;2.10;;
73456;SDS011;61691;53.072;6.582;2023-08-12T11:55:22;7.25;;;1.90;;
73456;SDS011;61691;53.072;6.582;2023-08-12T11:57:49;5.90;;;1.98;;
73456;SDS011;61691;53.072;6.582;2023-08-12T12:00:17;6.32;;;1.92;;
73456;SDS011;61691;53.072;6.582;2023-08-12T12:02:46;7.72;;;2.25;;
73456;SDS011;61691;53.072;6.582;2023-08-12T12:05:13;9.40;;;2.38;;
73456;SDS011;61691;53.072;6.582;2023-08-12T12:07:40;9.00;;;2.30;;
73456;SDS011;61691;53.072;6.582;2023-08-12T12:10:07;11.82;;;2.60;;
73456;SDS011;61691;53.072;6.582;2023-08-12T12:12:35;11.73;;;2.78;;
73456;SDS011;61691;53.072;6.582;2023-08-12T12:15:03;13.98;;;2.80;;
73456;SDS011;61691;53.072;6.582;2023-08-12T12:17:31;14.35;;;3.15;;
73456;SDS011;61691;53.072;6.582;2023-08-12T12:20:00;12.77;;;3.17;;
73456;SDS011;61691;53.072;6.582;2023-08-12T12:22:30;13.38;;;2.72;;
73456;SDS011;61691;53.072;6.582;2023-08-12T12:25:05;15.30;;;3.10;;
73456;SDS011;61691;53.072;6.582;2023-08-12T12:27:38;14.85;;;3.47;;
73456;SDS011;61691;53.072;6.582;2023-08-12T12:30:07;15.63;;;3.58;;
73456;SDS011;61691;53.072;6.582;2023-08-12T12:32:35;13.27;;;3.17;;
73456;SDS011;61691;53.072;6.582;2023-08-12T12:35:02;14.95;;;3.58;;
73456;SDS011;61691;53.072;6.582;2023-08-12T12:37:36;13.70;;;2.70;;
73456;SDS011;61691;53.072;6.582;2023-08-12T12:40:03;14.45;;;3.42;;
73456;SDS011;61691;53.072;6.582;2023-08-12T12:42:31;12.38;;;2.70;;
73456;SDS011;61691;53.072;6.582;2023-08-12T12:44:59;13.27;;;3.30;;
73456;SDS011;61691;53.072;6.582;2023-08-12T12:47:25;15.32;;;3.45;;
73456;SDS011;61691;53.072;6.582;2023-08-12T12:49:52;14.20;;;2.85;;
73456;SDS011;61691;53.072;6.582;2023-08-12T12:52:19;12.63;;;2.40;;
73456;SDS011;61691;53.072;6.582;2023-08-12T12:54:46;15.00;;;2.70;;
73456;SDS011;61691;53.072;6.582;2023-08-12T12:57:12;11.77;;;2.47;;
73456;SDS011;61691;53.072;6.582;2023-08-12T12:59:39;13.07;;;2.60;;
73456;SDS011;61691;53.072;6.582;2023-08-12T13:02:06;11.93;;;2.60;;
73456;SDS011;61691;53.072;6.582;2023-08-12T13:04:34;13.32;;;2.90;;
73456;SDS011;61691;53.072;6.582;2023-08-12T13:07:01;14.52;;;2.78;;
73456;SDS011;61691;53.072;6.582;2023-08-12T13:09:27;14.43;;;2.45;;
73456;SDS011;61691;53.072;6.582;2023-08-12T13:11:54;13.70;;;2.70;;
73456;SDS011;61691;53.072;6.582;2023-08-12T13:14:23;11.50;;;2.30;;
73456;SDS011;61691;53.072;6.582;2023-08-12T13:16:50;15.45;;;3.00;;
73456;SDS011;61691;53.072;6.582;2023-08-12T13:19:17;14.25;;;2.70;;
73456;SDS011;61691;53.072;6.582;2023-08-12T13:21:44;14.48;;;2.80;;
73456;SDS011;61691;53.072;6.582;2023-08-12T13:24:11;14.45;;;2.50;;
73456;SDS011;61691;53.072;6.582;2023-08-12T13:26:38;14.02;;;2.22;;
73456;SDS011;61691;53.072;6.582;2023-08-12T13:29:05;16.55;;;2.63;;
73456;SDS011;61691;53.072;6.582;2023-08-12T13:31:32;18.67;;;3.60;;
73456;SDS011;61691;53.072;6.582;2023-08-12T13:33:59;12.40;;;2.60;;
73456;SDS011;61691;53.072;6.582;2023-08-12T13:36:27;14.43;;;3.08;;
73456;SDS011;61691;53.072;6.582;2023-08-12T13:38:53;15.02;;;2.83;;
73456;SDS011;61691;53.072;6.582;2023-08-12T13:41:20;16.00;;;2.70;;
73456;SDS011;61691;53.072;6.582;2023-08-12T13:43:47;18.48;;;2.80;;
73456;SDS011;61691;53.072;6.582;2023-08-12T13:46:14;14.02;;;3.05;;
73456;SDS011;61691;53.072;6.582;2023-08-12T13:48:41;12.35;;;2.22;;
73456;SDS011;61691;53.072;6.582;2023-08-12T13:51:08;15.60;;;2.60;;
73456;SDS011;61691;53.072;6.582;2023-08-12T13:53:35;15.82;;;2.72;;
73456;SDS011;61691;53.072;6.582;2023-08-12T13:56:02;15.48;;;2.38;;
73456;SDS011;61691;53.072;6.582;2023-08-12T13:58:29;17.98;;;2.70;;
73456;SDS011;61691;53.072;6.582;2023-08-12T14:00:56;17.83;;;2.50;;
73456;SDS011;61691;53.072;6.582;2023-08-12T14:03:22;12.95;;;2.40;;
73456;SDS011;61691;53.072;6.582;2023-08-12T14:05:49;16.30;;;2.60;;
73456;SDS011;61691;53.072;6.582;2023-08-12T14:08:16;16.83;;;2.60;;
73456;SDS011;61691;53.072;6.582;2023-08-12T14:10:45;17.00;;;3.03;;
73456;SDS011;61691;53.072;6.582;2023-08-12T14:13:13;15.55;;;2.78;;
73456;SDS011;61691;53.072;6.582;2023-08-12T14:15:40;16.80;;;2.75;;
73456;SDS011;61691;53.072;6.582;2023-08-12T14:18:07;16.33;;;2.67;;
73456;SDS011;61691;53.072;6.582;2023-08-12T14:20:34;14.43;;;2.58;;
73456;SDS011;61691;53.072;6.582;2023-08-12T14:23:01;14.13;;;2.40;;
73456;SDS011;61691;53.072;6.582;2023-08-12T14:25:28;14.07;;;2.50;;
73456;SDS011;61691;53.072;6.582;2023-08-12T14:27:55;15.02;;;2.72;;
73456;SDS011;61691;53.072;6.582;2023-08-12T14:30:23;14.48;;;2.17;;
73456;SDS011;61691;53.072;6.582;2023-08-12T14:32:52;18.05;;;2.55;;
73456;SDS011;61691;53.072;6.582;2023-08-12T14:35:19;14.45;;;2.30;;
73456;SDS011;61691;53.072;6.582;2023-08-12T14:37:45;13.73;;;2.30;;
73456;SDS011;61691;53.072;6.582;2023-08-12T14:40:12;13.90;;;2.80;;
73456;SDS011;61691;53.072;6.582;2023-08-12T14:42:39;15.20;;;3.03;;
73456;SDS011;61691;53.072;6.582;2023-08-12T14:45:06;13.00;;;2.53;;
73456;SDS011;61691;53.072;6.582;2023-08-12T14:47:33;16.38;;;2.80;;
73456;SDS011;61691;53.072;6.582;2023-08-12T14:50:00;16.35;;;2.60;;
73456;SDS011;61691;53.072;6.582;2023-08-12T14:52:27;15.77;;;2.53;;
73456;SDS011;61691;53.072;6.582;2023-08-12T14:54:54;11.88;;;2.50;;
73456;SDS011;61691;53.072;6.582;2023-08-12T14:57:20;12.95;;;3.08;;
73456;SDS011;61691;53.072;6.582;2023-08-12T14:59:47;15.05;;;2.50;;